sensor_id;sensor_type;location;lat;lon;timestamp;P1;durP1;ratioP1;P2;durP2;ratioP2
17987;SDS011;9119;50.932;5.342;2022-08-18T00:01:44;82.10;;;46.83;;
17987;SDS011;9119;50.932;5.342;2022-08-18T00:04:13;71.20;;;43.00;;
17987;SDS011;9119;50.932;5.342;2022-08-18T00:06:39;68.93;;;43.57;;
17987;SDS011;9119;50.932;5.342;2022-08-18T00:09:06;73.13;;;43.67;;
17987;SDS011;9119;50.932;5.342;2022-08-18T00:11:39;81.47;;;47.27;;
17987;SDS011;9119;50.932;5.342;2022-08-18T00:14:06;72.10;;;42.53;;
17987;SDS011;9119;50.932;5.342;2022-08-18T00:16:33;67.43;;;42.07;;
17987;SDS011;9119;50.932;5.342;2022-08-18T00:18:58;72.57;;;43.37;;
17987;SDS011;9119;50.932;5.342;2022-08-18T00:21:24;69.00;;;42.30;;
17987;SDS011;9119;50.932;5.342;2022-08-18T00:23:50;72.33;;;43.20;;
17987;SDS011;9119;50.932;5.342;2022-08-18T00:26:18;72.70;;;43.83;;
17987;SDS011;9119;50.932;5.342;2022-08-18T00:28:43;81.00;;;43.60;;
17987;SDS011;9119;50.932;5.342;2022-08-18T00:31:09;73.20;;;43.57;;
17987;SDS011;9119;50.932;5.342;2022-08-18T00:33:34;68.57;;;42.87;;
17987;SDS011;9119;50.932;5.342;2022-08-18T00:36:00;70.37;;;42.90;;
17987;SDS011;9119;50.932;5.342;2022-08-18T00:38:26;72.50;;;44.07;;
17987;SDS011;9119;50.932;5.342;2022-08-18T00:40:52;69.37;;;42.87;;
17987;SDS011;9119;50.932;5.342;2022-08-18T00:43:23;70.10;;;42.47;;
17987;SDS011;9119;50.932;5.342;2022-08-18T00:46:01;70.37;;;42.77;;
17987;SDS011;9119;50.932;5.342;2022-08-18T00:48:29;67.70;;;42.13;;
17987;SDS011;9119;50.932;5.342;2022-08-18T00:50:58;72.57;;;44.40;;
17987;SDS011;9119;50.932;5.342;2022-08-18T00:53:33;70.73;;;43.07;;
17987;SDS011;9119;50.932;5.342;2022-08-18T00:56:32;77.73;;;44.83;;
17987;SDS011;9119;50.932;5.342;2022-08-18T01:01:51;71.87;;;43.07;;
17987;SDS011;9119;50.932;5.342;2022-08-18T01:04:28;70.47;;;43.40;;
17987;SDS011;9119;50.932;5.342;2022-08-18T01:06:59;75.40;;;44.90;;
17987;SDS011;9119;50.932;5.342;2022-08-18T01:09:29;71.33;;;45.03;;
17987;SDS011;9119;50.932;5.342;2022-08-18T01:11:54;71.90;;;44.90;;
17987;SDS011;9119;50.932;5.342;2022-08-18T01:14:20;71.73;;;42.97;;
17987;SDS011;9119;50.932;5.342;2022-08-18T01:16:47;70.73;;;43.53;;
17987;SDS011;9119;50.932;5.342;2022-08-18T01:19:33;81.13;;;46.87;;
17987;SDS011;9119;50.932;5.342;2022-08-18T01:22:26;109.77;;;52.40;;
17987;SDS011;9119;50.932;5.342;2022-08-18T01:25:03;99.00;;;49.77;;
17987;SDS011;9119;50.932;5.342;2022-08-18T01:27:50;125.67;;;55.47;;
17987;SDS011;9119;50.932;5.342;2022-08-18T01:30:16;155.27;;;63.80;;
17987;SDS011;9119;50.932;5.342;2022-08-18T01:32:43;149.67;;;61.07;;
17987;SDS011;9119;50.932;5.342;2022-08-18T01:35:10;182.13;;;68.27;;
17987;SDS011;9119;50.932;5.342;2022-08-18T01:37:38;167.10;;;66.60;;
17987;SDS011;9119;50.932;5.342;2022-08-18T01:40:05;170.50;;;67.77;;
17987;SDS011;9119;50.932;5.342;2022-08-18T01:42:33;181.73;;;67.73;;
17987;SDS011;9119;50.932;5.342;2022-08-18T01:45:01;168.07;;;67.60;;
17987;SDS011;9119;50.932;5.342;2022-08-18T01:47:28;158.47;;;66.03;;
17987;SDS011;9119;50.932;5.342;2022-08-18T01:49:55;153.80;;;62.97;;
17987;SDS011;9119;50.932;5.342;2022-08-18T01:52:22;164.27;;;65.27;;
17987;SDS011;9119;50.932;5.342;2022-08-18T01:54:49;160.73;;;65.63;;
17987;SDS011;9119;50.932;5.342;2022-08-18T01:57:16;164.50;;;63.60;;
17987;SDS011;9119;50.932;5.342;2022-08-18T01:59:42;164.47;;;63.27;;
17987;SDS011;9119;50.932;5.342;2022-08-18T02:02:09;158.57;;;65.10;;
17987;SDS011;9119;50.932;5.342;2022-08-18T02:04:39;144.97;;;60.60;;
17987;SDS011;9119;50.932;5.342;2022-08-18T02:07:07;141.77;;;60.20;;
17987;SDS011;9119;50.932;5.342;2022-08-18T02:09:37;146.93;;;59.47;;
17987;SDS011;9119;50.932;5.342;2022-08-18T02:12:04;136.00;;;59.90;;
17987;SDS011;9119;50.932;5.342;2022-08-18T02:14:31;141.43;;;57.47;;
17987;SDS011;9119;50.932;5.342;2022-08-18T02:16:58;140.00;;;59.53;;
17987;SDS011;9119;50.932;5.342;2022-08-18T02:19:25;128.13;;;56.20;;
17987;SDS011;9119;50.932;5.342;2022-08-18T02:21:51;127.03;;;54.60;;
17987;SDS011;9119;50.932;5.342;2022-08-18T02:24:17;122.17;;;54.17;;
17987;SDS011;9119;50.932;5.342;2022-08-18T02:26:43;118.47;;;53.20;;
17987;SDS011;9119;50.932;5.342;2022-08-18T02:29:09;120.73;;;53.37;;
17987;SDS011;9119;50.932;5.342;2022-08-18T02:31:35;123.63;;;54.00;;
17987;SDS011;9119;50.932;5.342;2022-08-18T02:34:01;122.13;;;55.10;;
17987;SDS011;9119;50.932;5.342;2022-08-18T02:36:26;113.77;;;53.07;;
17987;SDS011;9119;50.932;5.342;2022-08-18T02:38:52;107.87;;;50.80;;
17987;SDS011;9119;50.932;5.342;2022-08-18T02:41:18;104.97;;;50.23;;
17987;SDS011;9119;50.932;5.342;2022-08-18T02:43:45;106.20;;;50.90;;
17987;SDS011;9119;50.932;5.342;2022-08-18T02:46:12;103.73;;;50.17;;
17987;SDS011;9119;50.932;5.342;2022-08-18T02:48:38;95.70;;;47.30;;
17987;SDS011;9119;50.932;5.342;2022-08-18T02:51:06;97.33;;;48.50;;
17987;SDS011;9119;50.932;5.342;2022-08-18T02:53:37;94.97;;;47.50;;
17987;SDS011;9119;50.932;5.342;2022-08-18T02:56:05;90.77;;;45.13;;
17987;SDS011;9119;50.932;5.342;2022-08-18T02:58:55;98.80;;;48.40;;
17987;SDS011;9119;50.932;5.342;2022-08-18T03:01:24;109.37;;;49.67;;
17987;SDS011;9119;50.932;5.342;2022-08-18T03:03:52;100.57;;;49.07;;
17987;SDS011;9119;50.932;5.342;2022-08-18T03:06:18;92.73;;;46.83;;
17987;SDS011;9119;50.932;5.342;2022-08-18T03:08:45;87.77;;;44.30;;
17987;SDS011;9119;50.932;5.342;2022-08-18T03:11:18;86.33;;;45.83;;
17987;SDS011;9119;50.932;5.342;2022-08-18T03:13:46;80.73;;;43.23;;
17987;SDS011;9119;50.932;5.342;2022-08-18T03:16:12;90.43;;;44.20;;
17987;SDS011;9119;50.932;5.342;2022-08-18T03:18:40;81.97;;;42.07;;
17987;SDS011;9119;50.932;5.342;2022-08-18T03:21:10;89.17;;;43.33;;
17987;SDS011;9119;50.932;5.342;2022-08-18T03:23:37;91.80;;;44.17;;
17987;SDS011;9119;50.932;5.342;2022-08-18T03:26:05;93.73;;;45.33;;
17987;SDS011;9119;50.932;5.342;2022-08-18T03:28:35;87.20;;;44.00;;
17987;SDS011;9119;50.932;5.342;2022-08-18T03:31:02;97.37;;;46.10;;
17987;SDS011;9119;50.932;5.342;2022-08-18T03:33:27;95.00;;;47.03;;
17987;SDS011;9119;50.932;5.342;2022-08-18T03:35:53;92.00;;;45.83;;
17987;SDS011;9119;50.932;5.342;2022-08-18T03:38:19;94.77;;;46.73;;
17987;SDS011;9119;50.932;5.342;2022-08-18T03:40:51;94.70;;;46.50;;
17987;SDS011;9119;50.932;5.342;2022-08-18T03:43:17;98.83;;;46.20;;
17987;SDS011;9119;50.932;5.342;2022-08-18T03:45:43;99.53;;;45.33;;
17987;SDS011;9119;50.932;5.342;2022-08-18T03:48:10;91.13;;;45.03;;
17987;SDS011;9119;50.932;5.342;2022-08-18T03:50:36;97.20;;;46.00;;
17987;SDS011;9119;50.932;5.342;2022-08-18T03:53:02;100.83;;;45.80;;
17987;SDS011;9119;50.932;5.342;2022-08-18T03:55:29;97.50;;;45.67;;
17987;SDS011;9119;50.932;5.342;2022-08-18T03:57:59;105.50;;;46.27;;
17987;SDS011;9119;50.932;5.342;2022-08-18T04:00:29;97.97;;;45.17;;
17987;SDS011;9119;50.932;5.342;2022-08-18T04:02:57;99.40;;;46.20;;
17987;SDS011;9119;50.932;5.342;2022-08-18T04:05:24;110.20;;;47.90;;
17987;SDS011;9119;50.932;5.342;2022-08-18T04:07:50;103.20;;;46.13;;
17987;SDS011;9119;50.932;5.342;2022-08-18T04:10:17;102.67;;;45.73;;
17987;SDS011;9119;50.932;5.342;2022-08-18T04:12:43;97.50;;;45.80;;
17987;SDS011;9119;50.932;5.342;2022-08-18T04:15:09;110.10;;;47.87;;
17987;SDS011;9119;50.932;5.342;2022-08-18T04:17:35;107.83;;;47.70;;
17987;SDS011;9119;50.932;5.342;2022-08-18T04:20:01;100.17;;;46.63;;
17987;SDS011;9119;50.932;5.342;2022-08-18T04:22:28;105.07;;;47.47;;
17987;SDS011;9119;50.932;5.342;2022-08-18T04:24:57;108.47;;;47.70;;
17987;SDS011;9119;50.932;5.342;2022-08-18T04:27:25;105.13;;;48.77;;
17987;SDS011;9119;50.932;5.342;2022-08-18T04:29:51;95.63;;;46.80;;
17987;SDS011;9119;50.932;5.342;2022-08-18T04:32:17;96.57;;;45.17;;
17987;SDS011;9119;50.932;5.342;2022-08-18T04:34:43;98.60;;;46.00;;
17987;SDS011;9119;50.932;5.342;2022-08-18T04:37:09;102.87;;;47.57;;
17987;SDS011;9119;50.932;5.342;2022-08-18T04:39:36;102.90;;;46.53;;
17987;SDS011;9119;50.932;5.342;2022-08-18T04:42:01;96.57;;;45.27;;
17987;SDS011;9119;50.932;5.342;2022-08-18T04:44:28;100.47;;;46.37;;
17987;SDS011;9119;50.932;5.342;2022-08-18T04:46:54;92.87;;;44.23;;
17987;SDS011;9119;50.932;5.342;2022-08-18T04:49:21;93.60;;;45.43;;
17987;SDS011;9119;50.932;5.342;2022-08-18T04:51:50;89.63;;;45.10;;
17987;SDS011;9119;50.932;5.342;2022-08-18T04:54:37;96.67;;;43.90;;
17987;SDS011;9119;50.932;5.342;2022-08-18T04:59:36;94.97;;;44.70;;
17987;SDS011;9119;50.932;5.342;2022-08-18T05:02:04;92.03;;;44.53;;
17987;SDS011;9119;50.932;5.342;2022-08-18T05:04:33;85.63;;;42.07;;
17987;SDS011;9119;50.932;5.342;2022-08-18T05:07:01;91.60;;;44.47;;
17987;SDS011;9119;50.932;5.342;2022-08-18T05:09:31;88.07;;;42.53;;
17987;SDS011;9119;50.932;5.342;2022-08-18T05:11:56;88.63;;;42.67;;
17987;SDS011;9119;50.932;5.342;2022-08-18T05:14:22;90.87;;;43.57;;
17987;SDS011;9119;50.932;5.342;2022-08-18T05:16:48;95.77;;;44.23;;
17987;SDS011;9119;50.932;5.342;2022-08-18T05:19:14;85.53;;;40.87;;
17987;SDS011;9119;50.932;5.342;2022-08-18T05:21:41;88.50;;;41.37;;
17987;SDS011;9119;50.932;5.342;2022-08-18T05:24:07;88.20;;;40.63;;
17987;SDS011;9119;50.932;5.342;2022-08-18T05:26:34;83.13;;;40.33;;
17987;SDS011;9119;50.932;5.342;2022-08-18T05:29:00;82.30;;;39.57;;
17987;SDS011;9119;50.932;5.342;2022-08-18T05:31:27;86.43;;;39.70;;
17987;SDS011;9119;50.932;5.342;2022-08-18T05:33:53;97.13;;;43.47;;
17987;SDS011;9119;50.932;5.342;2022-08-18T05:41:37;97.90;;;45.20;;
17987;SDS011;9119;50.932;5.342;2022-08-18T05:44:06;90.53;;;43.23;;
17987;SDS011;9119;50.932;5.342;2022-08-18T05:46:41;98.53;;;43.60;;
17987;SDS011;9119;50.932;5.342;2022-08-18T05:49:12;81.93;;;39.37;;
17987;SDS011;9119;50.932;5.342;2022-08-18T05:51:40;89.00;;;42.53;;
17987;SDS011;9119;50.932;5.342;2022-08-18T05:54:09;93.13;;;43.17;;
17987;SDS011;9119;50.932;5.342;2022-08-18T05:57:00;93.40;;;43.37;;
17987;SDS011;9119;50.932;5.342;2022-08-18T05:59:30;104.60;;;43.50;;
17987;SDS011;9119;50.932;5.342;2022-08-18T06:04:51;89.27;;;42.27;;
17987;SDS011;9119;50.932;5.342;2022-08-18T06:07:29;88.33;;;42.33;;
17987;SDS011;9119;50.932;5.342;2022-08-18T06:10:19;92.07;;;42.93;;
17987;SDS011;9119;50.932;5.342;2022-08-18T06:12:47;88.27;;;41.77;;
17987;SDS011;9119;50.932;5.342;2022-08-18T06:15:19;94.47;;;41.47;;
17987;SDS011;9119;50.932;5.342;2022-08-18T06:21:09;90.33;;;42.30;;
17987;SDS011;9119;50.932;5.342;2022-08-18T06:26:39;98.50;;;43.30;;
17987;SDS011;9119;50.932;5.342;2022-08-18T06:32:04;103.60;;;45.60;;
17987;SDS011;9119;50.932;5.342;2022-08-18T06:37:17;99.67;;;43.90;;
17987;SDS011;9119;50.932;5.342;2022-08-18T06:39:51;109.20;;;45.87;;
17987;SDS011;9119;50.932;5.342;2022-08-18T06:42:20;99.47;;;46.40;;
17987;SDS011;9119;50.932;5.342;2022-08-18T06:45:00;114.17;;;47.77;;
17987;SDS011;9119;50.932;5.342;2022-08-18T06:47:38;111.53;;;47.80;;
17987;SDS011;9119;50.932;5.342;2022-08-18T06:50:18;110.83;;;49.10;;
17987;SDS011;9119;50.932;5.342;2022-08-18T06:52:52;108.53;;;47.23;;
17987;SDS011;9119;50.932;5.342;2022-08-18T06:55:18;105.50;;;47.53;;
17987;SDS011;9119;50.932;5.342;2022-08-18T07:03:15;100.30;;;46.40;;
17987;SDS011;9119;50.932;5.342;2022-08-18T07:08:36;114.50;;;48.83;;
17987;SDS011;9119;50.932;5.342;2022-08-18T07:13:49;102.73;;;44.80;;
17987;SDS011;9119;50.932;5.342;2022-08-18T07:16:21;96.77;;;43.40;;
17987;SDS011;9119;50.932;5.342;2022-08-18T07:18:53;97.90;;;44.90;;
17987;SDS011;9119;50.932;5.342;2022-08-18T07:21:31;100.53;;;44.97;;
17987;SDS011;9119;50.932;5.342;2022-08-18T07:23:58;98.00;;;45.47;;
17987;SDS011;9119;50.932;5.342;2022-08-18T07:26:30;102.00;;;46.17;;
17987;SDS011;9119;50.932;5.342;2022-08-18T07:29:15;94.80;;;44.23;;
17987;SDS011;9119;50.932;5.342;2022-08-18T07:31:46;88.00;;;43.73;;
17987;SDS011;9119;50.932;5.342;2022-08-18T07:34:16;89.33;;;43.00;;
17987;SDS011;9119;50.932;5.342;2022-08-18T07:36:48;87.37;;;42.00;;
17987;SDS011;9119;50.932;5.342;2022-08-18T07:39:22;95.07;;;42.60;;
17987;SDS011;9119;50.932;5.342;2022-08-18T07:41:55;85.67;;;40.67;;
17987;SDS011;9119;50.932;5.342;2022-08-18T07:44:45;74.37;;;37.13;;
17987;SDS011;9119;50.932;5.342;2022-08-18T07:49:57;75.50;;;38.43;;
17987;SDS011;9119;50.932;5.342;2022-08-18T07:52:36;80.90;;;38.30;;
17987;SDS011;9119;50.932;5.342;2022-08-18T07:55:27;73.57;;;38.40;;
17987;SDS011;9119;50.932;5.342;2022-08-18T08:01:02;74.17;;;36.83;;
17987;SDS011;9119;50.932;5.342;2022-08-18T08:08:53;71.93;;;34.53;;
17987;SDS011;9119;50.932;5.342;2022-08-18T08:14:05;61.10;;;31.60;;
17987;SDS011;9119;50.932;5.342;2022-08-18T08:19:46;57.67;;;30.27;;
17987;SDS011;9119;50.932;5.342;2022-08-18T08:28:35;35.37;;;21.73;;
17987;SDS011;9119;50.932;5.342;2022-08-18T08:31:28;32.80;;;20.53;;
17987;SDS011;9119;50.932;5.342;2022-08-18T08:36:40;42.03;;;23.03;;
17987;SDS011;9119;50.932;5.342;2022-08-18T08:39:17;41.93;;;24.50;;
17987;SDS011;9119;50.932;5.342;2022-08-18T08:42:15;39.37;;;23.93;;
17987;SDS011;9119;50.932;5.342;2022-08-18T08:44:52;42.43;;;24.27;;
17987;SDS011;9119;50.932;5.342;2022-08-18T08:50:16;39.93;;;21.40;;
17987;SDS011;9119;50.932;5.342;2022-08-18T08:55:19;37.53;;;22.17;;
17987;SDS011;9119;50.932;5.342;2022-08-18T09:00:37;34.73;;;19.73;;
17987;SDS011;9119;50.932;5.342;2022-08-18T09:03:42;35.63;;;21.03;;
17987;SDS011;9119;50.932;5.342;2022-08-18T09:06:14;39.77;;;20.57;;
17987;SDS011;9119;50.932;5.342;2022-08-18T09:11:43;32.07;;;18.93;;
17987;SDS011;9119;50.932;5.342;2022-08-18T09:17:57;33.57;;;19.73;;
17987;SDS011;9119;50.932;5.342;2022-08-18T09:23:03;34.10;;;19.37;;
17987;SDS011;9119;50.932;5.342;2022-08-18T09:28:06;33.57;;;19.33;;
17987;SDS011;9119;50.932;5.342;2022-08-18T09:36:26;26.63;;;15.77;;
17987;SDS011;9119;50.932;5.342;2022-08-18T09:39:01;25.93;;;16.10;;
17987;SDS011;9119;50.932;5.342;2022-08-18T09:42:13;20.87;;;14.23;;
17987;SDS011;9119;50.932;5.342;2022-08-18T09:49:50;23.47;;;14.70;;
17987;SDS011;9119;50.932;5.342;2022-08-18T09:59:54;27.70;;;15.83;;
17987;SDS011;9119;50.932;5.342;2022-08-18T10:07:43;23.93;;;14.37;;
17987;SDS011;9119;50.932;5.342;2022-08-18T10:23:46;17.40;;;11.27;;
17987;SDS011;9119;50.932;5.342;2022-08-18T10:37:01;21.53;;;10.73;;
17987;SDS011;9119;50.932;5.342;2022-08-18T10:39:43;21.93;;;10.10;;
17987;SDS011;9119;50.932;5.342;2022-08-18T10:47:35;16.23;;;9.80;;
17987;SDS011;9119;50.932;5.342;2022-08-18T10:50:03;16.17;;;9.40;;
17987;SDS011;9119;50.932;5.342;2022-08-18T11:00:54;15.10;;;9.47;;
17987;SDS011;9119;50.932;5.342;2022-08-18T11:06:27;15.13;;;8.60;;
17987;SDS011;9119;50.932;5.342;2022-08-18T11:09:00;12.27;;;9.00;;
17987;SDS011;9119;50.932;5.342;2022-08-18T11:11:42;11.57;;;8.27;;
17987;SDS011;9119;50.932;5.342;2022-08-18T11:19:40;17.37;;;9.07;;
17987;SDS011;9119;50.932;5.342;2022-08-18T11:22:22;15.43;;;9.63;;
17987;SDS011;9119;50.932;5.342;2022-08-18T11:24:53;12.93;;;8.67;;
17987;SDS011;9119;50.932;5.342;2022-08-18T11:27:20;12.37;;;8.83;;
17987;SDS011;9119;50.932;5.342;2022-08-18T11:29:48;15.57;;;9.23;;
17987;SDS011;9119;50.932;5.342;2022-08-18T11:37:43;19.17;;;11.60;;
17987;SDS011;9119;50.932;5.342;2022-08-18T11:40:20;16.07;;;10.77;;
17987;SDS011;9119;50.932;5.342;2022-08-18T11:45:22;20.80;;;11.63;;
17987;SDS011;9119;50.932;5.342;2022-08-18T11:50:49;16.40;;;10.97;;
17987;SDS011;9119;50.932;5.342;2022-08-18T11:56:15;15.77;;;10.10;;
17987;SDS011;9119;50.932;5.342;2022-08-18T12:01:38;14.70;;;10.50;;
17987;SDS011;9119;50.932;5.342;2022-08-18T12:07:11;22.70;;;10.70;;
17987;SDS011;9119;50.932;5.342;2022-08-18T12:09:47;12.60;;;8.70;;
17987;SDS011;9119;50.932;5.342;2022-08-18T12:12:52;10.97;;;8.10;;
17987;SDS011;9119;50.932;5.342;2022-08-18T12:17:48;14.33;;;9.10;;
17987;SDS011;9119;50.932;5.342;2022-08-18T12:20:14;15.37;;;8.80;;
17987;SDS011;9119;50.932;5.342;2022-08-18T12:22:41;13.53;;;8.30;;
17987;SDS011;9119;50.932;5.342;2022-08-18T12:25:10;10.67;;;8.90;;
17987;SDS011;9119;50.932;5.342;2022-08-18T12:27:37;14.47;;;9.47;;
17987;SDS011;9119;50.932;5.342;2022-08-18T12:30:03;12.60;;;8.90;;
17987;SDS011;9119;50.932;5.342;2022-08-18T12:32:31;14.37;;;9.23;;
17987;SDS011;9119;50.932;5.342;2022-08-18T12:34:58;16.63;;;9.10;;
17987;SDS011;9119;50.932;5.342;2022-08-18T12:37:25;14.97;;;8.40;;
17987;SDS011;9119;50.932;5.342;2022-08-18T12:39:53;13.13;;;8.23;;
17987;SDS011;9119;50.932;5.342;2022-08-18T12:42:19;10.87;;;7.83;;
17987;SDS011;9119;50.932;5.342;2022-08-18T12:44:45;13.47;;;7.90;;
17987;SDS011;9119;50.932;5.342;2022-08-18T12:47:19;8.60;;;6.60;;
17987;SDS011;9119;50.932;5.342;2022-08-18T12:49:49;12.63;;;7.23;;
17987;SDS011;9119;50.932;5.342;2022-08-18T12:52:16;14.73;;;6.97;;
17987;SDS011;9119;50.932;5.342;2022-08-18T12:54:43;12.00;;;7.53;;
17987;SDS011;9119;50.932;5.342;2022-08-18T12:57:12;10.47;;;7.07;;
17987;SDS011;9119;50.932;5.342;2022-08-18T12:59:46;9.33;;;7.00;;
17987;SDS011;9119;50.932;5.342;2022-08-18T13:02:12;10.03;;;7.33;;
17987;SDS011;9119;50.932;5.342;2022-08-18T13:04:37;14.10;;;7.30;;
17987;SDS011;9119;50.932;5.342;2022-08-18T13:07:03;14.10;;;7.00;;
17987;SDS011;9119;50.932;5.342;2022-08-18T13:09:32;10.77;;;7.10;;
17987;SDS011;9119;50.932;5.342;2022-08-18T13:11:59;8.20;;;6.40;;
17987;SDS011;9119;50.932;5.342;2022-08-18T13:14:25;8.80;;;6.57;;
17987;SDS011;9119;50.932;5.342;2022-08-18T13:16:51;10.07;;;6.63;;
17987;SDS011;9119;50.932;5.342;2022-08-18T13:19:17;10.80;;;6.47;;
17987;SDS011;9119;50.932;5.342;2022-08-18T13:21:43;8.53;;;6.30;;
17987;SDS011;9119;50.932;5.342;2022-08-18T13:24:09;15.27;;;7.20;;
17987;SDS011;9119;50.932;5.342;2022-08-18T13:26:36;9.47;;;7.33;;
17987;SDS011;9119;50.932;5.342;2022-08-18T13:29:04;10.20;;;7.53;;
17987;SDS011;9119;50.932;5.342;2022-08-18T13:31:30;11.10;;;7.50;;
17987;SDS011;9119;50.932;5.342;2022-08-18T13:33:56;13.37;;;7.30;;
17987;SDS011;9119;50.932;5.342;2022-08-18T13:36:23;9.87;;;7.13;;
17987;SDS011;9119;50.932;5.342;2022-08-18T13:38:51;9.07;;;6.77;;
17987;SDS011;9119;50.932;5.342;2022-08-18T13:41:18;8.23;;;6.70;;
17987;SDS011;9119;50.932;5.342;2022-08-18T13:43:44;13.73;;;7.23;;
17987;SDS011;9119;50.932;5.342;2022-08-18T13:46:12;11.17;;;6.93;;
17987;SDS011;9119;50.932;5.342;2022-08-18T13:48:39;8.97;;;6.33;;
17987;SDS011;9119;50.932;5.342;2022-08-18T13:51:08;8.23;;;6.87;;
17987;SDS011;9119;50.932;5.342;2022-08-18T13:53:38;9.67;;;6.50;;
17987;SDS011;9119;50.932;5.342;2022-08-18T13:56:05;13.20;;;8.57;;
17987;SDS011;9119;50.932;5.342;2022-08-18T13:58:31;9.97;;;6.67;;
17987;SDS011;9119;50.932;5.342;2022-08-18T14:00:57;8.47;;;5.93;;
17987;SDS011;9119;50.932;5.342;2022-08-18T14:03:26;9.53;;;6.20;;
17987;SDS011;9119;50.932;5.342;2022-08-18T14:05:52;11.43;;;6.33;;
17987;SDS011;9119;50.932;5.342;2022-08-18T14:08:21;11.50;;;6.50;;
17987;SDS011;9119;50.932;5.342;2022-08-18T14:10:48;8.77;;;6.30;;
17987;SDS011;9119;50.932;5.342;2022-08-18T14:13:17;11.20;;;6.40;;
17987;SDS011;9119;50.932;5.342;2022-08-18T14:15:43;9.50;;;6.27;;
17987;SDS011;9119;50.932;5.342;2022-08-18T14:18:09;9.10;;;6.43;;
17987;SDS011;9119;50.932;5.342;2022-08-18T14:20:35;8.60;;;5.90;;
17987;SDS011;9119;50.932;5.342;2022-08-18T14:23:20;7.80;;;5.60;;
17987;SDS011;9119;50.932;5.342;2022-08-18T14:26:04;8.37;;;5.07;;
17987;SDS011;9119;50.932;5.342;2022-08-18T14:28:48;11.83;;;6.67;;
17987;SDS011;9119;50.932;5.342;2022-08-18T14:31:14;6.47;;;5.07;;
17987;SDS011;9119;50.932;5.342;2022-08-18T14:33:41;8.47;;;5.50;;
17987;SDS011;9119;50.932;5.342;2022-08-18T14:36:09;9.27;;;5.57;;
17987;SDS011;9119;50.932;5.342;2022-08-18T14:38:36;8.37;;;5.17;;
17987;SDS011;9119;50.932;5.342;2022-08-18T14:41:03;9.63;;;6.03;;
17987;SDS011;9119;50.932;5.342;2022-08-18T14:43:31;7.13;;;5.40;;
17987;SDS011;9119;50.932;5.342;2022-08-18T14:46:00;8.40;;;4.87;;
17987;SDS011;9119;50.932;5.342;2022-08-18T14:48:26;8.60;;;4.77;;
17987;SDS011;9119;50.932;5.342;2022-08-18T14:50:53;9.37;;;5.23;;
17987;SDS011;9119;50.932;5.342;2022-08-18T14:53:21;8.67;;;5.20;;
17987;SDS011;9119;50.932;5.342;2022-08-18T14:55:50;6.43;;;4.87;;
17987;SDS011;9119;50.932;5.342;2022-08-18T14:58:24;7.60;;;5.47;;
17987;SDS011;9119;50.932;5.342;2022-08-18T15:00:52;6.43;;;5.30;;
17987;SDS011;9119;50.932;5.342;2022-08-18T15:03:26;9.23;;;5.20;;
17987;SDS011;9119;50.932;5.342;2022-08-18T15:05:54;8.53;;;4.93;;
17987;SDS011;9119;50.932;5.342;2022-08-18T15:08:20;7.03;;;4.87;;
17987;SDS011;9119;50.932;5.342;2022-08-18T15:10:46;6.83;;;4.87;;
17987;SDS011;9119;50.932;5.342;2022-08-18T15:13:12;11.17;;;5.00;;
17987;SDS011;9119;50.932;5.342;2022-08-18T15:15:38;5.97;;;4.83;;
17987;SDS011;9119;50.932;5.342;2022-08-18T15:18:05;6.87;;;4.93;;
17987;SDS011;9119;50.932;5.342;2022-08-18T15:20:31;8.03;;;5.67;;
17987;SDS011;9119;50.932;5.342;2022-08-18T15:23:00;8.87;;;6.63;;
17987;SDS011;9119;50.932;5.342;2022-08-18T15:25:46;9.97;;;6.47;;
17987;SDS011;9119;50.932;5.342;2022-08-18T15:28:17;10.60;;;7.47;;
17987;SDS011;9119;50.932;5.342;2022-08-18T15:30:44;8.53;;;6.67;;
17987;SDS011;9119;50.932;5.342;2022-08-18T15:33:11;9.27;;;6.40;;
17987;SDS011;9119;50.932;5.342;2022-08-18T15:35:41;8.90;;;5.60;;
17987;SDS011;9119;50.932;5.342;2022-08-18T15:38:08;6.07;;;4.93;;
17987;SDS011;9119;50.932;5.342;2022-08-18T15:40:36;6.97;;;5.10;;
17987;SDS011;9119;50.932;5.342;2022-08-18T15:43:05;17.10;;;5.77;;
17987;SDS011;9119;50.932;5.342;2022-08-18T15:45:36;8.57;;;5.60;;
17987;SDS011;9119;50.932;5.342;2022-08-18T15:48:05;9.00;;;5.60;;
17987;SDS011;9119;50.932;5.342;2022-08-18T15:50:31;9.50;;;5.43;;
17987;SDS011;9119;50.932;5.342;2022-08-18T15:52:58;9.27;;;4.97;;
17987;SDS011;9119;50.932;5.342;2022-08-18T15:55:28;7.87;;;5.53;;
17987;SDS011;9119;50.932;5.342;2022-08-18T15:57:55;6.70;;;5.43;;
17987;SDS011;9119;50.932;5.342;2022-08-18T16:00:22;8.57;;;5.73;;
17987;SDS011;9119;50.932;5.342;2022-08-18T16:02:50;8.87;;;5.80;;
17987;SDS011;9119;50.932;5.342;2022-08-18T16:05:21;10.03;;;6.37;;
17987;SDS011;9119;50.932;5.342;2022-08-18T16:07:49;7.17;;;5.83;;
17987;SDS011;9119;50.932;5.342;2022-08-18T16:10:17;9.90;;;5.90;;
17987;SDS011;9119;50.932;5.342;2022-08-18T16:12:44;9.57;;;6.00;;
17987;SDS011;9119;50.932;5.342;2022-08-18T16:15:15;7.90;;;5.50;;
17987;SDS011;9119;50.932;5.342;2022-08-18T16:17:42;7.37;;;6.37;;
17987;SDS011;9119;50.932;5.342;2022-08-18T16:20:09;7.93;;;5.67;;
17987;SDS011;9119;50.932;5.342;2022-08-18T16:22:35;8.03;;;6.03;;
17987;SDS011;9119;50.932;5.342;2022-08-18T16:25:05;8.40;;;6.20;;
17987;SDS011;9119;50.932;5.342;2022-08-18T16:27:32;8.10;;;5.77;;
17987;SDS011;9119;50.932;5.342;2022-08-18T16:29:59;11.80;;;6.10;;
17987;SDS011;9119;50.932;5.342;2022-08-18T16:32:26;11.53;;;6.40;;
17987;SDS011;9119;50.932;5.342;2022-08-18T16:34:52;8.77;;;6.77;;
17987;SDS011;9119;50.932;5.342;2022-08-18T16:37:18;7.33;;;5.90;;
17987;SDS011;9119;50.932;5.342;2022-08-18T16:39:44;8.03;;;6.83;;
17987;SDS011;9119;50.932;5.342;2022-08-18T16:42:10;8.63;;;6.67;;
17987;SDS011;9119;50.932;5.342;2022-08-18T16:44:36;10.13;;;6.50;;
17987;SDS011;9119;50.932;5.342;2022-08-18T16:47:03;10.13;;;6.03;;
17987;SDS011;9119;50.932;5.342;2022-08-18T16:49:29;10.07;;;6.83;;
17987;SDS011;9119;50.932;5.342;2022-08-18T16:51:56;8.27;;;7.03;;
17987;SDS011;9119;50.932;5.342;2022-08-18T16:54:26;8.53;;;7.10;;
17987;SDS011;9119;50.932;5.342;2022-08-18T16:56:52;7.70;;;6.47;;
17987;SDS011;9119;50.932;5.342;2022-08-18T16:59:18;9.00;;;7.10;;
17987;SDS011;9119;50.932;5.342;2022-08-18T17:02:02;10.53;;;6.73;;
17987;SDS011;9119;50.932;5.342;2022-08-18T17:04:46;8.27;;;6.50;;
17987;SDS011;9119;50.932;5.342;2022-08-18T17:07:12;9.20;;;6.67;;
17987;SDS011;9119;50.932;5.342;2022-08-18T17:09:38;9.97;;;6.63;;
17987;SDS011;9119;50.932;5.342;2022-08-18T17:12:03;8.43;;;7.17;;
17987;SDS011;9119;50.932;5.342;2022-08-18T17:14:30;13.73;;;7.60;;
17987;SDS011;9119;50.932;5.342;2022-08-18T17:16:56;12.80;;;8.37;;
17987;SDS011;9119;50.932;5.342;2022-08-18T17:19:25;10.87;;;7.10;;
17987;SDS011;9119;50.932;5.342;2022-08-18T17:21:54;10.73;;;7.30;;
17987;SDS011;9119;50.932;5.342;2022-08-18T17:24:19;12.20;;;8.30;;
17987;SDS011;9119;50.932;5.342;2022-08-18T17:27:08;13.17;;;9.07;;
17987;SDS011;9119;50.932;5.342;2022-08-18T17:29:46;10.40;;;8.47;;
17987;SDS011;9119;50.932;5.342;2022-08-18T17:32:24;10.47;;;8.57;;
17987;SDS011;9119;50.932;5.342;2022-08-18T17:35:07;11.57;;;8.33;;
17987;SDS011;9119;50.932;5.342;2022-08-18T17:37:40;12.27;;;7.40;;
17987;SDS011;9119;50.932;5.342;2022-08-18T17:40:23;9.50;;;7.03;;
17987;SDS011;9119;50.932;5.342;2022-08-18T17:42:53;16.60;;;10.90;;
17987;SDS011;9119;50.932;5.342;2022-08-18T17:45:20;11.10;;;8.13;;
17987;SDS011;9119;50.932;5.342;2022-08-18T17:50:32;11.17;;;8.10;;
17987;SDS011;9119;50.932;5.342;2022-08-18T17:53:41;9.20;;;7.43;;
17987;SDS011;9119;50.932;5.342;2022-08-18T17:56:10;9.50;;;7.67;;